Time;durP1;ratioP1;P1;durP2;ratioP2;P2;SDS_P1;SDS_P2;PMS_P1;PMS_P2;Temp;Humidity;BMP_temperature;BMP_pressure;BME280_temperature;BME280_humidity;BME280_pressure;Samples;Min_cycle;Max_cycle;Signal;HPM_P1;HPM_P2
2022/11/22 00:02:25;;;;;;;4.53;2.60;;;7.40;94.70;;;;;;5139481;27;20422;-42
2022/11/22 00:04:50;;;;;;;3.80;2.73;;;7.40;94.60;;;;;;5139531;27;20175;-42
2022/11/22 00:07:16;;;;;;;6.40;3.27;;;7.40;94.60;;;;;;5139537;27;20179;-46
2022/11/22 00:09:41;;;;;;;6.90;2.90;;;7.40;94.50;;;;;;5138871;27;20320;-42
2022/11/22 00:12:07;;;;;;;5.47;2.70;;;7.50;94.50;;;;;;5139424;27;20588;-42
2022/11/22 00:14:33;;;;;;;4.17;2.83;;;7.50;94.50;;;;;;5139360;27;20186;-44
2022/11/22 00:16:58;;;;;;;4.90;2.70;;;7.50;94.50;;;;;;5139287;27;20231;-41
2022/11/22 00:19:24;;;;;;;4.63;2.73;;;7.50;94.50;;;;;;5139492;27;20214;-43
2022/11/22 00:21:49;;;;;;;4.80;2.70;;;7.50;94.50;;;;;;5139146;27;20191;-44
2022/11/22 00:24:15;;;;;;;3.67;2.33;;;7.60;94.60;;;;;;5139139;27;20163;-44
2022/11/22 00:26:40;;;;;;;3.93;2.13;;;7.60;94.60;;;;;;5139360;27;20187;-47
2022/11/22 00:29:06;;;;;;;2.90;2.30;;;7.60;94.60;;;;;;5136707;27;20557;-46
2022/11/22 00:31:32;;;;;;;3.80;2.40;;;7.60;94.70;;;;;;5137794;27;20283;-43
2022/11/22 00:33:58;;;;;;;6.87;2.50;;;7.60;94.70;;;;;;5137648;27;20459;-43
2022/11/22 00:36:24;;;;;;;2.70;2.00;;;7.60;94.80;;;;;;5137551;27;20198;-44
2022/11/22 00:38:49;;;;;;;3.90;1.67;;;7.60;94.90;;;;;;5120056;27;20211;-44
2022/11/22 00:41:15;;;;;;;5.73;2.20;;;7.60;94.90;;;;;;5136658;27;20200;-43
2022/11/22 00:43:40;;;;;;;2.90;1.97;;;7.60;95.00;;;;;;5135998;27;20175;-46
2022/11/22 00:46:06;;;;;;;2.80;2.13;;;7.60;95.10;;;;;;5135494;27;20247;-45
2022/11/22 00:48:32;;;;;;;2.80;2.10;;;7.60;95.10;;;;;;5134123;27;20198;-43
2022/11/22 00:50:58;;;;;;;4.23;1.80;;;7.60;95.20;;;;;;5134098;27;20187;-45
2022/11/22 00:53:24;;;;;;;4.00;1.90;;;7.60;95.20;;;;;;5134506;27;20268;-45
2022/11/22 00:55:49;;;;;;;3.93;2.43;;;7.60;95.20;;;;;;5135850;27;20823;-44
2022/11/22 00:58:15;;;;;;;2.90;1.63;;;7.70;95.30;;;;;;5136857;27;20495;-43
2022/11/22 01:00:41;;;;;;;3.40;2.27;;;7.70;95.30;;;;;;5136974;27;20175;-43
2022/11/22 01:03:10;;;;;;;3.47;1.97;;;7.70;95.20;;;;;;5137821;27;20246;-44
2022/11/22 01:05:35;;;;;;;3.37;1.83;;;7.70;95.20;;;;;;5138159;27;20320;-42
2022/11/22 01:08:01;;;;;;;2.17;1.87;;;7.70;95.20;;;;;;5138198;27;20835;-43
2022/11/22 01:10:26;;;;;;;3.50;1.77;;;7.70;95.20;;;;;;5138221;27;20185;-44
2022/11/22 01:12:52;;;;;;;4.03;2.40;;;7.70;95.20;;;;;;5138620;27;20175;-42
2022/11/22 01:15:18;;;;;;;3.40;2.40;;;7.70;95.20;;;;;;5138166;27;20194;-42
2022/11/22 01:17:43;;;;;;;4.50;2.50;;;7.70;95.20;;;;;;5138106;27;20222;-44
2022/11/22 01:20:09;;;;;;;4.00;1.90;;;7.70;95.20;;;;;;5120345;27;20215;-41
2022/11/22 01:22:35;;;;;;;4.70;1.87;;;7.70;95.30;;;;;;5138189;27;20417;-46
2022/11/22 01:25:00;;;;;;;4.77;2.37;;;7.70;95.30;;;;;;5138223;28;20577;-46
2022/11/22 01:27:26;;;;;;;2.40;1.90;;;7.70;95.30;;;;;;5138738;28;20179;-43
2022/11/22 01:29:51;;;;;;;5.83;2.47;;;7.70;95.40;;;;;;5137953;28;20557;-42
2022/11/22 01:32:17;;;;;;;4.90;2.40;;;7.70;95.40;;;;;;5138591;28;20171;-44
2022/11/22 01:34:43;;;;;;;1.93;1.77;;;7.70;95.40;;;;;;5138501;28;20187;-47
2022/11/22 01:37:08;;;;;;;5.63;2.80;;;7.70;95.50;;;;;;5138371;28;20188;-43
2022/11/22 01:39:34;;;;;;;3.47;2.37;;;7.70;95.50;;;;;;5138721;28;20200;-44
2022/11/22 01:41:59;;;;;;;3.50;2.10;;;7.70;95.90;;;;;;5138559;28;20592;-45
2022/11/22 01:44:28;;;;;;;5.20;2.23;;;7.70;95.60;;;;;;5138941;28;20196;-45
2022/11/22 01:47:01;;;;;;;4.03;2.13;;;7.70;95.70;;;;;;5138470;28;20202;-43
2022/11/22 01:49:29;;;;;;;5.70;2.60;;;7.70;95.70;;;;;;5137986;28;20417;-41
2022/11/22 01:52:02;;;;;;;3.13;2.20;;;7.70;95.70;;;;;;5138605;28;20428;-45
2022/11/22 01:54:31;;;;;;;2.93;2.00;;;7.70;95.70;;;;;;5119975;28;20837;-42
2022/11/22 01:57:00;;;;;;;3.27;2.10;;;7.70;95.70;;;;;;5119974;28;20420;-43
2022/11/22 01:59:28;;;;;;;3.73;2.50;;;7.70;95.70;;;;;;5120055;28;20822;-44
2022/11/22 02:01:54;;;;;;;4.13;2.00;;;7.70;95.70;;;;;;5120181;28;20425;-42
2022/11/22 02:04:21;;;;;;;2.73;2.30;;;7.70;95.80;;;;;;5138397;28;20409;-42
2022/11/22 02:07:16;;;;;;;2.70;2.40;;;7.70;95.80;;;;;;5138264;28;20425;-43
2022/11/22 02:09:42;;;;;;;3.47;2.60;;;7.70;95.90;;;;;;5137934;28;20409;-45
2022/11/22 02:12:09;;;;;;;2.83;2.20;;;7.70;95.90;;;;;;5120048;27;20696;-45
2022/11/22 02:14:35;;;;;;;4.43;2.60;;;7.70;96.00;;;;;;5123516;27;20413;-45
2022/11/22 02:17:01;;;;;;;4.03;2.10;;;7.70;96.00;;;;;;5120242;28;20572;-42
2022/11/22 02:19:33;;;;;;;3.20;2.30;;;7.70;96.10;;;;;;5121043;28;20563;-42
2022/11/22 02:22:03;;;;;;;3.40;2.27;;;7.70;96.20;;;;;;5121919;28;20492;-45
2022/11/22 02:24:38;;;;;;;4.10;2.07;;;7.70;96.20;;;;;;5120366;28;20426;-44
2022/11/22 02:27:03;;;;;;;5.10;2.93;;;7.70;96.30;;;;;;5120643;28;20900;-44
2022/11/22 02:32:51;;;;;;;2.93;2.30;;;7.70;96.40;;;;;;5119677;28;20182;-47
2022/11/22 02:35:20;;;;;;;2.77;2.37;;;7.70;96.40;;;;;;5120055;28;20414;-44
2022/11/22 02:37:48;;;;;;;3.20;1.90;;;7.70;96.40;;;;;;5120818;28;20184;-44
2022/11/22 02:40:15;;;;;;;4.87;2.30;;;7.70;96.50;;;;;;5120790;28;20723;-44
2022/11/22 02:42:47;;;;;;;4.70;2.80;;;7.70;96.50;;;;;;5120637;28;20429;-44
2022/11/22 02:45:13;;;;;;;4.10;2.37;;;7.70;96.50;;;;;;5119853;28;20726;-42
2022/11/22 02:47:39;;;;;;;3.30;2.50;;;7.60;96.40;;;;;;5117952;28;20434;-45
2022/11/22 02:50:05;;;;;;;3.00;2.00;;;7.70;96.50;;;;;;5119129;28;20169;-45
2022/11/22 02:52:31;;;;;;;3.00;2.40;;;7.70;96.50;;;;;;5119431;28;20188;-44
2022/11/22 02:54:56;;;;;;;2.83;2.30;;;7.60;96.50;;;;;;5120024;28;20421;-44
2022/11/22 02:57:22;;;;;;;2.63;2.20;;;7.60;96.60;;;;;;5118691;28;20237;-43
2022/11/22 02:59:47;;;;;;;3.13;2.40;;;7.60;96.60;;;;;;5120134;28;20195;-46
2022/11/22 03:02:13;;;;;;;3.90;2.40;;;7.60;96.60;;;;;;5119711;28;20440;-43
2022/11/22 03:04:38;;;;;;;4.53;3.00;;;7.50;96.60;;;;;;5119520;28;20160;-45
2022/11/22 03:07:04;;;;;;;3.73;2.60;;;7.50;96.60;;;;;;5117662;28;20168;-45
2022/11/22 03:09:31;;;;;;;3.73;2.30;;;7.50;96.70;;;;;;5119393;28;20225;-43
2022/11/22 03:12:14;;;;;;;4.07;2.70;;;7.50;96.70;;;;;;5117515;28;20272;-45
2022/11/22 03:14:39;;;;;;;3.93;2.53;;;7.40;96.70;;;;;;5117528;28;20414;-46
2022/11/22 03:17:05;;;;;;;3.10;2.50;;;7.40;96.70;;;;;;5100807;28;20481;-43
2022/11/22 03:19:30;;;;;;;3.80;2.77;;;7.40;96.80;;;;;;5118103;28;20326;-44
2022/11/22 03:21:56;;;;;;;3.13;2.33;;;7.40;96.80;;;;;;5120320;28;20225;-45
2022/11/22 03:24:22;;;;;;;6.43;2.60;;;7.40;96.90;;;;;;5118854;28;20176;-46
2022/11/22 03:26:48;;;;;;;4.20;2.40;;;7.40;97.00;;;;;;5120214;28;20168;-44
2022/11/22 03:29:15;;;;;;;5.00;2.40;;;7.40;97.00;;;;;;5118319;28;20179;-41
2022/11/22 03:31:41;;;;;;;5.23;2.27;;;7.30;96.90;;;;;;5118476;28;20406;-43
2022/11/22 03:34:07;;;;;;;4.37;2.80;;;7.40;97.00;;;;;;5118209;28;20427;-45
2022/11/22 03:36:33;;;;;;;5.20;2.80;;;7.30;96.90;;;;;;5119224;27;20175;-44
2022/11/22 03:38:58;;;;;;;2.67;1.90;;;7.30;96.90;;;;;;5119140;28;20470;-43
2022/11/22 03:41:24;;;;;;;3.73;2.40;;;7.30;96.90;;;;;;5118456;28;20189;-43
2022/11/22 03:43:50;;;;;;;6.53;2.20;;;7.30;96.90;;;;;;5119887;28;20172;-44
2022/11/22 03:46:18;;;;;;;3.50;2.23;;;7.30;96.90;;;;;;5119580;28;20290;-43
2022/11/22 03:48:44;;;;;;;3.27;1.80;;;7.30;97.00;;;;;;5120698;28;20215;-42
2022/11/22 03:51:09;;;;;;;2.67;2.07;;;7.30;97.00;;;;;;5120447;28;20836;-42
2022/11/22 03:53:35;;;;;;;3.73;2.67;;;7.30;96.90;;;;;;5120286;28;20184;-43
2022/11/22 03:56:00;;;;;;;4.40;2.43;;;7.20;96.90;;;;;;5120324;28;20444;-43
2022/11/22 03:58:26;;;;;;;3.67;2.10;;;7.20;96.90;;;;;;5119291;28;20203;-42
2022/11/22 04:00:52;;;;;;;3.83;2.07;;;7.20;96.80;;;;;;5119242;28;20646;-46
2022/11/22 04:03:17;;;;;;;3.87;2.23;;;7.20;96.80;;;;;;5119119;28;20631;-48
2022/11/22 04:05:44;;;;;;;2.57;2.00;;;7.20;96.80;;;;;;5119526;28;20172;-43
2022/11/22 04:08:10;;;;;;;3.10;2.10;;;7.20;96.80;;;;;;5118491;28;20287;-43
2022/11/22 04:10:35;;;;;;;5.60;2.00;;;7.20;96.70;;;;;;5119204;28;20445;-44
2022/11/22 04:13:01;;;;;;;3.43;2.27;;;7.20;96.70;;;;;;5119331;28;20267;-43
2022/11/22 04:15:26;;;;;;;3.40;1.90;;;7.20;96.70;;;;;;5119432;28;20175;-47
2022/11/22 04:17:52;;;;;;;3.97;2.03;;;7.10;96.70;;;;;;5139421;27;20249;-44
2022/11/22 04:23:08;;;;;;;4.90;2.27;;;7.10;96.80;;;;;;5138988;27;20190;-45
2022/11/22 04:25:36;;;;;;;4.57;2.43;;;7.10;96.70;;;;;;5139641;27;20421;-45
2022/11/22 04:28:02;;;;;;;4.80;2.80;;;7.00;96.70;;;;;;5139230;27;20421;-44
2022/11/22 04:33:14;;;;;;;9.43;3.80;;;7.00;96.70;;;;;;5138044;27;20435;-43
2022/11/22 04:35:40;;;;;;;7.30;3.60;;;6.90;96.70;;;;;;5138503;27;20421;-44
2022/11/22 04:38:06;;;;;;;4.67;3.10;;;6.90;96.70;;;;;;5137873;27;20429;-44
2022/11/22 04:40:32;;;;;;;4.37;3.33;;;6.90;96.80;;;;;;5137302;27;20493;-44
2022/11/22 04:45:42;;;;;;;4.87;3.10;;;6.80;96.70;;;;;;5120710;27;21116;-44
2022/11/22 04:48:11;;;;;;;5.23;2.90;;;6.80;96.80;;;;;;5136862;27;20703;-45
2022/11/22 04:53:43;;;;;;;5.57;2.97;;;6.70;96.70;;;;;;5071248;28;20912;-43
2022/11/22 04:56:09;;;;;;;3.67;2.60;;;6.70;96.70;;;;;;5070990;28;20813;-44
2022/11/22 04:58:34;;;;;;;5.30;2.80;;;6.60;96.70;;;;;;5101462;27;20583;-44
2022/11/22 05:01:00;;;;;;;3.47;1.90;;;6.60;96.60;;;;;;5135052;27;20214;-42
2022/11/22 05:03:25;;;;;;;5.33;2.87;;;6.60;96.60;;;;;;5135955;27;20266;-44
2022/11/22 05:05:51;;;;;;;2.97;2.13;;;6.60;96.60;;;;;;5136544;27;20553;-44
2022/11/22 05:08:17;;;;;;;3.70;2.57;;;6.50;96.40;;;;;;5137065;27;20184;-43
2022/11/22 05:10:58;;;;;;;3.73;2.43;;;6.50;96.40;;;;;;5137118;27;20262;-44
2022/11/22 05:13:33;;;;;;;4.40;2.30;;;6.50;96.30;;;;;;5136610;27;20182;-45
2022/11/22 05:16:00;;;;;;;4.30;2.47;;;6.50;96.30;;;;;;5136165;27;20854;-44
2022/11/22 05:18:26;;;;;;;4.63;1.90;;;6.40;96.30;;;;;;5118604;28;20433;-43
2022/11/22 05:20:52;;;;;;;3.80;2.20;;;6.40;96.30;;;;;;5137509;27;20460;-43
2022/11/22 05:26:02;;;;;;;3.20;2.33;;;6.40;96.30;;;;;;5137051;28;20404;-44
2022/11/22 05:28:30;;;;;;;3.27;2.20;;;6.40;96.30;;;;;;5136458;28;20433;-42
2022/11/22 05:30:56;;;;;;;2.80;2.10;;;6.40;96.40;;;;;;5136703;28;20184;-42
2022/11/22 05:33:22;;;;;;;4.37;2.60;;;6.40;96.40;;;;;;5135809;28;20858;-44
2022/11/22 05:35:47;;;;;;;5.73;3.00;;;6.40;96.40;;;;;;5133379;28;20541;-43
2022/11/22 05:38:13;;;;;;;3.43;2.13;;;6.40;96.40;;;;;;5133686;28;20737;-42
2022/11/22 05:40:38;;;;;;;4.70;2.20;;;6.40;96.50;;;;;;5132861;28;20171;-45
2022/11/22 05:43:04;;;;;;;3.20;2.27;;;6.40;96.50;;;;;;5116281;28;20187;-47
2022/11/22 05:45:30;;;;;;;2.30;1.80;;;6.40;96.50;;;;;;5133508;28;20318;-42
2022/11/22 05:47:56;;;;;;;3.77;1.90;;;6.40;96.60;;;;;;5119288;27;20511;-43
2022/11/22 05:50:21;;;;;;;4.67;2.67;;;6.50;96.70;;;;;;5141417;27;20628;-47
2022/11/22 05:52:47;;;;;;;4.30;2.30;;;6.40;96.60;;;;;;5142073;27;20436;-45
2022/11/22 05:55:13;;;;;;;4.87;2.50;;;6.40;96.60;;;;;;5141018;27;20180;-44
2022/11/22 05:57:38;;;;;;;4.73;2.20;;;6.50;96.70;;;;;;5140343;27;20179;-45
2022/11/22 06:00:04;;;;;;;3.40;1.63;;;6.50;96.70;;;;;;5141462;27;20203;-42
2022/11/22 06:02:30;;;;;;;4.00;2.43;;;6.50;96.60;;;;;;5138595;27;20515;-43
2022/11/22 06:04:56;;;;;;;4.00;2.20;;;6.50;96.70;;;;;;5120156;27;20441;-45
2022/11/22 06:07:22;;;;;;;7.10;3.30;;;6.40;96.60;;;;;;5118802;27;20431;-42
2022/11/22 06:09:47;;;;;;;4.40;2.53;;;6.50;96.70;;;;;;5136627;27;20270;-41
2022/11/22 06:12:13;;;;;;;5.57;2.97;;;6.40;96.60;;;;;;5113732;27;20257;-41
2022/11/22 06:14:39;;;;;;;5.07;2.77;;;6.50;96.60;;;;;;5079602;28;20283;-43
2022/11/22 06:17:04;;;;;;;5.90;2.20;;;6.40;96.60;;;;;;5096897;28;20265;-43
2022/11/22 06:19:30;;;;;;;4.77;1.63;;;6.40;96.60;;;;;;5097628;28;20258;-44
2022/11/22 06:21:55;;;;;;;8.50;2.40;;;6.40;96.60;;;;;;5098129;28;20245;-41
2022/11/22 06:24:21;;;;;;;2.43;1.47;;;6.40;96.60;;;;;;5098414;28;20302;-44
2022/11/22 06:26:46;;;;;;;3.70;2.10;;;6.40;96.60;;;;;;5081010;28;20177;-44
2022/11/22 06:29:12;;;;;;;5.87;1.77;;;6.40;96.60;;;;;;5081121;28;20574;-43
2022/11/22 06:31:38;;;;;;;4.27;1.77;;;6.40;96.60;;;;;;5098035;28;20241;-46
2022/11/22 06:34:04;;;;;;;4.73;2.07;;;6.40;96.60;;;;;;5080552;28;20199;-46
2022/11/22 06:36:32;;;;;;;5.30;2.20;;;6.40;96.60;;;;;;5097445;28;20193;-44
2022/11/22 06:38:58;;;;;;;5.53;2.60;;;6.40;96.60;;;;;;5063756;28;20625;-45
2022/11/22 06:41:25;;;;;;;4.50;2.20;;;6.40;96.60;;;;;;5097322;28;20419;-42
2022/11/22 06:43:53;;;;;;;4.27;2.67;;;6.40;96.60;;;;;;5096772;28;21443;-41
2022/11/22 06:46:23;;;;;;;4.73;2.50;;;6.40;96.60;;;;;;5060514;28;20422;-44
2022/11/22 06:48:49;;;;;;;4.97;3.07;;;6.40;96.60;;;;;;5096529;28;20499;-43
2022/11/22 06:51:19;;;;;;;11.23;7.20;;;6.40;96.60;;;;;;5095340;28;20430;-42
2022/11/22 06:53:47;;;;;;;19.70;9.77;;;6.40;96.60;;;;;;5115822;28;20441;-42
2022/11/22 06:56:14;;;;;;;19.53;10.60;;;6.40;96.60;;;;;;5118530;28;20535;-44
2022/11/22 06:58:41;;;;;;;21.17;11.70;;;6.50;96.70;;;;;;5116667;28;20728;-47
2022/11/22 07:01:09;;;;;;;18.23;10.37;;;6.40;96.70;;;;;;5115176;28;20425;-43
2022/11/22 07:03:38;;;;;;;16.57;10.20;;;6.50;96.70;;;;;;5099252;28;20511;-44
2022/11/22 07:06:04;;;;;;;17.63;8.90;;;6.50;96.70;;;;;;5117022;28;20406;-43
2022/11/22 07:08:30;;;;;;;19.70;8.80;;;6.50;96.70;;;;;;5115862;28;20501;-41
2022/11/22 07:11:10;;;;;;;13.37;7.43;;;6.50;96.70;;;;;;5116814;28;20512;-42
2022/11/22 07:13:36;;;;;;;10.40;5.57;;;6.50;96.70;;;;;;5100527;28;20430;-43
2022/11/22 07:16:04;;;;;;;12.40;7.53;;;6.60;96.70;;;;;;5117346;28;20468;-40
2022/11/22 07:18:31;;;;;;;11.17;5.00;;;6.60;96.70;;;;;;5116592;28;20773;-41
2022/11/22 07:21:05;;;;;;;9.40;5.03;;;6.60;96.70;;;;;;5116296;28;20715;-41
2022/11/22 07:23:31;;;;;;;10.27;4.90;;;6.60;96.70;;;;;;5098044;28;20515;-41
2022/11/22 07:25:57;;;;;;;5.87;3.33;;;6.70;96.70;;;;;;5116728;28;20505;-41
2022/11/22 07:28:23;;;;;;;6.73;3.27;;;6.70;96.70;;;;;;5115239;28;20512;-40
2022/11/22 07:30:49;;;;;;;9.40;4.13;;;6.70;96.80;;;;;;5115406;28;20413;-42
2022/11/22 07:33:14;;;;;;;7.60;3.30;;;6.70;96.80;;;;;;5116904;28;20414;-40
2022/11/22 07:35:40;;;;;;;4.90;2.03;;;6.80;96.90;;;;;;5115734;28;20180;-40
2022/11/22 07:38:06;;;;;;;9.73;2.47;;;6.80;96.90;;;;;;5113587;28;20254;-40
2022/11/22 07:40:31;;;;;;;6.70;2.40;;;6.80;97.00;;;;;;5113426;28;20307;-41
2022/11/22 07:42:57;;;;;;;4.90;2.10;;;6.80;97.10;;;;;;5116213;28;20184;-42
2022/11/22 07:45:23;;;;;;;8.43;3.10;;;6.80;97.10;;;;;;5114476;28;20197;-42
2022/11/22 07:47:48;;;;;;;4.93;2.20;;;6.90;97.20;;;;;;5115885;28;20589;-43
2022/11/22 07:50:14;;;;;;;6.40;2.17;;;6.90;97.20;;;;;;5117202;28;20418;-42
2022/11/22 07:52:40;;;;;;;5.80;2.20;;;6.90;97.20;;;;;;5115700;28;20192;-42
2022/11/22 07:55:06;;;;;;;4.20;1.53;;;7.00;97.30;;;;;;5114921;28;20867;-42
2022/11/22 07:57:32;;;;;;;5.17;2.10;;;7.00;97.30;;;;;;5117971;28;20211;-42
2022/11/22 07:59:58;;;;;;;4.97;2.20;;;7.10;97.30;;;;;;5097995;28;20496;-44
2022/11/22 08:02:25;;;;;;;5.37;2.20;;;7.10;97.30;;;;;;5115521;28;20442;-42
2022/11/22 08:04:51;;;;;;;4.17;2.63;;;7.20;97.20;;;;;;5098835;28;20402;-42
2022/11/22 08:07:16;;;;;;;6.23;2.27;;;7.30;97.20;;;;;;5116726;28;20712;-43
2022/11/22 08:09:42;;;;;;;4.97;2.60;;;7.30;97.10;;;;;;5115755;28;20586;-42
2022/11/22 08:12:08;;;;;;;5.50;2.00;;;7.40;97.00;;;;;;5113034;28;20369;-43
2022/11/22 08:14:34;;;;;;;7.17;2.53;;;7.40;96.80;;;;;;5114856;28;20615;-44
2022/11/22 08:17:00;;;;;;;5.03;2.30;;;7.50;96.70;;;;;;5115410;28;20531;-43
2022/11/22 08:19:26;;;;;;;4.13;2.10;;;7.50;96.60;;;;;;5115513;28;20465;-43
2022/11/22 08:21:52;;;;;;;5.17;2.30;;;7.60;96.60;;;;;;5117181;28;20168;-41
2022/11/22 08:24:18;;;;;;;3.00;1.90;;;7.70;96.50;;;;;;5098638;28;20432;-42
2022/11/22 08:26:43;;;;;;;7.80;2.93;;;7.70;96.40;;;;;;5116675;28;20168;-44
2022/11/22 08:29:10;;;;;;;12.37;2.57;;;7.80;96.30;;;;;;5118358;28;20244;-44
2022/11/22 08:31:36;;;;;;;6.60;1.97;;;7.90;96.20;;;;;;5117225;28;20172;-41
2022/11/22 08:34:02;;;;;;;3.63;2.00;;;7.90;96.10;;;;;;5117734;28;20455;-42
2022/11/22 08:36:28;;;;;;;5.33;1.70;;;8.00;96.10;;;;;;5118025;28;20429;-43
2022/11/22 08:38:54;;;;;;;5.00;1.90;;;8.10;96.00;;;;;;5099221;28;20935;-42
2022/11/22 08:41:20;;;;;;;4.97;2.00;;;8.20;95.90;;;;;;5117642;28;20172;-42
2022/11/22 08:43:49;;;;;;;5.17;2.80;;;8.30;95.70;;;;;;5116613;28;20465;-42
2022/11/22 08:46:15;;;;;;;3.60;2.00;;;8.40;95.60;;;;;;5099098;28;20504;-41
2022/11/22 08:48:40;;;;;;;7.90;2.20;;;8.50;95.40;;;;;;5116501;28;20574;-43
2022/11/22 08:51:08;;;;;;;3.93;2.60;;;8.60;95.30;;;;;;5115367;28;20165;-42
2022/11/22 08:53:36;;;;;;;3.77;2.30;;;8.70;95.10;;;;;;5116793;28;20172;-44
2022/11/22 08:56:03;;;;;;;7.10;2.57;;;8.80;95.00;;;;;;5116288;28;20523;-43
2022/11/22 08:58:30;;;;;;;7.57;2.30;;;8.90;94.70;;;;;;5081233;28;20434;-43
2022/11/22 09:00:56;;;;;;;3.33;1.83;;;9.00;94.60;;;;;;5116062;28;20743;-41
2022/11/22 09:03:22;;;;;;;3.83;2.10;;;9.10;94.40;;;;;;5116028;28;20823;-45
2022/11/22 09:05:48;;;;;;;5.13;2.20;;;9.20;94.20;;;;;;5116337;28;20423;-42
2022/11/22 09:08:13;;;;;;;5.17;2.57;;;9.30;94.00;;;;;;5116303;28;20187;-41
2022/11/22 09:10:39;;;;;;;4.90;2.23;;;9.40;93.90;;;;;;5116178;28;20180;-44
2022/11/22 09:13:05;;;;;;;6.60;2.67;;;9.50;93.70;;;;;;5115593;28;20214;-42
2022/11/22 09:15:30;;;;;;;2.80;1.90;;;9.60;93.50;;;;;;5114002;28;20172;-43
2022/11/22 09:18:03;;;;;;;3.50;1.70;;;9.80;93.40;;;;;;5111685;28;20574;-42
2022/11/22 09:20:28;;;;;;;3.90;2.33;;;9.90;93.10;;;;;;5111704;28;20465;-42
2022/11/22 09:22:54;;;;;;;7.20;2.67;;;10.10;92.20;;;;;;5110719;28;20432;-42
2022/11/22 09:25:20;;;;;;;7.13;3.30;;;10.30;91.90;;;;;;5112306;28;20546;-41
2022/11/22 09:27:45;;;;;;;5.63;2.40;;;10.40;91.60;;;;;;5113926;28;20171;-43
2022/11/22 09:30:11;;;;;;;8.17;2.47;;;10.50;91.30;;;;;;5113963;28;20228;-45
2022/11/22 09:32:37;;;;;;;5.03;2.50;;;10.70;91.20;;;;;;5112147;28;20540;-41
2022/11/22 09:35:02;;;;;;;4.57;1.97;;;10.80;90.90;;;;;;5112535;28;20409;-42
2022/11/22 09:37:28;;;;;;;5.93;2.20;;;10.80;90.70;;;;;;5114726;28;20519;-41
2022/11/22 09:39:54;;;;;;;4.97;2.03;;;10.90;90.50;;;;;;5096488;28;20230;-43
2022/11/22 09:42:42;;;;;;;5.03;2.47;;;10.90;90.20;;;;;;5115235;28;20577;-44
2022/11/22 09:45:15;;;;;;;4.47;2.00;;;11.00;90.10;;;;;;5097209;28;20509;-43
2022/11/22 09:48:08;;;;;;;6.70;2.30;;;11.00;89.90;;;;;;5094141;28;20712;-45
2022/11/22 09:50:42;;;;;;;4.53;2.20;;;11.00;89.10;;;;;;5098577;28;20421;-42
2022/11/22 09:53:13;;;;;;;5.80;2.10;;;11.00;89.00;;;;;;5115170;28;20472;-42
2022/11/22 09:55:48;;;;;;;4.53;1.77;;;11.00;88.70;;;;;;5091205;28;20435;-45
2022/11/22 09:58:32;;;;;;;6.57;2.53;;;10.90;88.60;;;;;;5077724;28;20724;-41
2022/11/22 10:01:11;;;;;;;4.47;2.00;;;10.90;88.40;;;;;;5077486;28;20786;-44
2022/11/22 10:03:45;;;;;;;3.40;1.83;;;10.90;88.30;;;;;;5106702;28;20863;-42
2022/11/22 10:06:18;;;;;;;6.97;2.00;;;10.90;88.20;;;;;;5098224;28;20529;-43
2022/11/22 10:09:07;;;;;;;5.17;2.50;;;10.90;88.00;;;;;;5097442;28;20441;-43
2022/11/22 10:11:43;;;;;;;5.60;2.20;;;10.90;87.90;;;;;;5116740;28;20414;-43
2022/11/22 10:14:20;;;;;;;8.40;2.70;;;10.90;87.50;;;;;;5098796;28;20432;-41
2022/11/22 10:17:01;;;;;;;9.07;3.57;;;10.90;90.80;;;;;;5116017;28;20739;-43
2022/11/22 10:19:44;;;;;;;9.90;3.17;;;11.30;95.30;;;;;;5097028;28;20986;-41
2022/11/22 10:22:13;;;;;;;9.20;2.93;;;11.40;93.50;;;;;;5114652;28;20431;-42
2022/11/22 10:24:39;;;;;;;4.33;2.37;;;11.40;91.70;;;;;;5114799;28;20735;-41
2022/11/22 10:27:12;;;;;;;8.40;3.23;;;11.40;90.70;;;;;;5074276;28;20419;-41
2022/11/22 10:29:54;;;;;;;5.50;2.60;;;11.40;89.50;;;;;;5060290;28;20502;-43
2022/11/22 10:32:25;;;;;;;8.17;2.30;;;11.40;86.80;;;;;;5092692;28;20419;-41
2022/11/22 10:35:09;;;;;;;3.67;1.70;;;11.40;85.30;;;;;;5078316;28;20691;-42
2022/11/22 10:37:43;;;;;;;5.73;1.97;;;11.40;84.70;;;;;;5096567;28;20488;-41
2022/11/22 10:40:09;;;;;;;6.43;2.23;;;11.40;82.90;;;;;;5063700;28;20521;-41
2022/11/22 10:42:50;;;;;;;3.07;1.67;;;11.40;82.10;;;;;;5088134;28;20463;-41
2022/11/22 10:45:17;;;;;;;3.80;1.60;;;11.50;81.30;;;;;;5092661;28;20207;-41
2022/11/22 10:47:57;;;;;;;5.47;2.00;;;11.50;80.60;;;;;;5097858;28;20476;-42
2022/11/22 10:50:41;;;;;;;6.60;1.60;;;11.60;79.80;;;;;;5079324;28;20902;-43
2022/11/22 10:53:26;;;;;;;3.97;1.90;;;11.70;78.60;;;;;;5098239;28;20476;-42
2022/11/22 10:56:00;;;;;;;4.63;1.93;;;11.80;77.30;;;;;;5060750;28;20940;-42
2022/11/22 10:58:31;;;;;;;3.33;1.73;;;11.80;76.50;;;;;;5085940;28;20824;-43
2022/11/22 11:01:16;;;;;;;5.97;1.67;;;11.80;76.00;;;;;;5080265;28;20418;-42
2022/11/22 11:03:43;;;;;;;4.53;1.60;;;11.80;74.50;;;;;;5098385;28;20461;-42
2022/11/22 11:06:44;;;;;;;15.00;2.67;;;11.90;74.70;;;;;;5098582;28;20419;-41
2022/11/22 11:09:28;;;;;;;7.50;2.70;;;11.90;74.50;;;;;;5079675;28;20471;-43
2022/11/22 11:11:54;;;;;;;8.40;2.53;;;12.00;74.30;;;;;;5097668;28;20414;-43
2022/11/22 11:14:19;;;;;;;6.80;2.57;;;12.00;73.50;;;;;;5118769;28;20437;-43
2022/11/22 11:16:45;;;;;;;4.73;1.97;;;12.00;73.60;;;;;;5129311;27;20227;-44
2022/11/22 11:19:16;;;;;;;6.53;1.90;;;12.00;73.50;;;;;;5137531;27;20303;-43
2022/11/22 11:21:42;;;;;;;4.63;1.70;;;12.10;73.30;;;;;;5102063;27;20432;-41
2022/11/22 11:24:12;;;;;;;4.83;1.80;;;12.10;73.00;;;;;;5137768;27;20858;-44
2022/11/22 11:26:39;;;;;;;6.10;1.77;;;12.10;72.70;;;;;;5137734;27;20218;-42
2022/11/22 11:29:17;;;;;;;5.47;2.10;;;12.10;72.60;;;;;;5132389;27;20441;-43
2022/11/22 11:31:50;;;;;;;6.33;1.73;;;12.20;71.90;;;;;;5115118;28;20417;-41
2022/11/22 11:34:25;;;;;;;4.93;2.20;;;12.30;71.70;;;;;;5111346;28;20675;-41
2022/11/22 11:36:54;;;;;;;8.60;2.40;;;12.40;71.20;;;;;;5096716;28;20429;-44
2022/11/22 11:39:23;;;;;;;5.23;1.67;;;12.40;69.30;;;;;;5096168;28;20453;-43
2022/11/22 11:41:49;;;;;;;3.70;1.10;;;12.40;68.10;;;;;;5115306;28;20416;-43
2022/11/22 11:44:35;;;;;;;4.93;1.47;;;12.40;67.20;;;;;;5115141;28;21068;-42
2022/11/22 11:47:04;;;;;;;5.33;1.10;;;12.50;66.70;;;;;;5097410;28;20409;-47
2022/11/22 11:49:32;;;;;;;3.93;1.50;;;12.50;65.70;;;;;;5098498;28;20497;-42
2022/11/22 11:52:13;;;;;;;2.20;1.20;;;12.60;66.20;;;;;;5099788;28;20423;-43
2022/11/22 11:54:44;;;;;;;3.17;1.10;;;12.70;65.80;;;;;;5078523;28;20824;-44
2022/11/22 11:57:30;;;;;;;4.90;1.37;;;12.80;65.80;;;;;;5082181;28;20474;-43
2022/11/22 12:00:00;;;;;;;4.20;1.83;;;12.90;65.30;;;;;;5117955;28;20495;-43
2022/11/22 12:02:39;;;;;;;6.27;1.83;;;13.00;64.60;;;;;;5117735;28;20430;-43
2022/11/22 12:05:14;;;;;;;3.00;1.47;;;13.10;64.00;;;;;;5100235;28;20633;-42
2022/11/22 12:07:45;;;;;;;3.50;1.80;;;13.20;63.50;;;;;;5097797;28;20440;-44
2022/11/22 12:10:48;;;;;;;4.50;1.23;;;13.30;62.90;;;;;;5086610;28;20444;-45
2022/11/22 12:13:23;;;;;;;2.60;1.23;;;13.40;62.70;;;;;;5105947;28;20446;-42
2022/11/22 12:16:26;;;;;;;3.60;2.03;;;13.40;61.50;;;;;;5098123;28;21498;-44
2022/11/22 12:18:58;;;;;;;2.83;1.70;;;13.40;61.40;;;;;;5095090;28;20481;-45
2022/11/22 12:21:29;;;;;;;5.50;2.00;;;13.50;60.60;;;;;;5094177;28;20421;-43
2022/11/22 12:24:10;;;;;;;4.37;1.50;;;13.50;60.60;;;;;;5095625;28;20705;-44
2022/11/22 12:26:35;;;;;;;4.37;1.40;;;13.60;60.40;;;;;;5105475;28;20419;-42
2022/11/22 12:29:01;;;;;;;4.90;1.47;;;13.80;60.00;;;;;;5076068;28;20433;-44
2022/11/22 12:32:06;;;;;;;4.70;1.53;;;13.90;59.70;;;;;;5103296;28;20422;-44
2022/11/22 12:34:52;;;;;;;3.27;1.33;;;14.20;59.60;;;;;;4996973;28;20646;-42
2022/11/22 12:37:33;;;;;;;9.70;1.60;;;14.30;59.10;;;;;;5012593;28;20863;-43
2022/11/22 12:40:02;;;;;;;2.80;1.43;;;14.30;58.60;;;;;;5086282;28;20761;-44
2022/11/22 12:42:31;;;;;;;4.90;1.67;;;14.30;58.40;;;;;;5080445;28;20450;-43
2022/11/22 12:45:21;;;;;;;4.40;1.83;;;14.40;57.90;;;;;;5095251;28;20487;-43
2022/11/22 12:47:49;;;;;;;5.30;2.53;;;14.40;57.80;;;;;;5094924;28;20465;-42
2022/11/22 12:50:38;;;;;;;4.00;1.70;;;14.50;57.70;;;;;;5100937;28;20430;-43
2022/11/22 12:53:20;;;;;;;4.37;2.60;;;14.50;57.50;;;;;;5091253;28;20480;-42
2022/11/22 12:55:57;;;;;;;5.00;2.87;;;14.80;74.70;;;;;;5069857;28;20545;-42
2022/11/22 12:58:37;;;;;;;3.80;2.60;;;15.30;82.80;;;;;;5073566;28;20437;-43
2022/11/22 13:01:23;;;;;;;6.50;2.40;;;15.80;83.90;;;;;;5101449;28;20707;-42
2022/11/22 13:04:00;;;;;;;4.37;1.97;;;16.30;82.60;;;;;;5080460;28;20442;-41
2022/11/22 13:06:31;;;;;;;3.87;1.67;;;16.90;81.00;;;;;;5076677;28;21102;-42
2022/11/22 13:09:30;;;;;;;6.03;2.17;;;17.40;78.30;;;;;;5076581;28;20539;-44
2022/11/22 13:12:08;;;;;;;4.03;1.70;;;17.90;75.10;;;;;;5094630;28;20423;-43
2022/11/22 13:14:41;;;;;;;5.10;2.13;;;18.30;70.30;;;;;;5077896;28;20419;-42
2022/11/22 13:17:11;;;;;;;3.20;1.80;;;18.40;66.90;;;;;;5077131;28;20463;-43
2022/11/22 13:20:03;;;;;;;4.37;2.30;;;18.50;63.50;;;;;;5076985;28;20971;-45
2022/11/22 13:22:54;;;;;;;3.47;1.50;;;18.60;62.40;;;;;;5060795;28;20531;-43